Time;durP1;ratioP1;P1;durP2;ratioP2;P2;SDS_P1;SDS_P2;PMS_P1;PMS_P2;Temp;Humidity;BMP_temperature;BMP_pressure;BME280_temperature;BME280_humidity;BME280_pressure;Samples;Min_cycle;Max_cycle;Signal;HPM_P1;HPM_P2
2022/05/15 00:00:58;;;;;;;7.10;1.58;;;;;;;13.21;53.10;101836.91;5088620;28;20047;-45
2022/05/15 00:03:25;;;;;;;5.82;1.48;;;;;;;13.19;53.02;101844.06;5082200;28;20032;-49
2022/05/15 00:05:53;;;;;;;4.55;1.33;;;;;;;13.13;53.39;101852.28;5086269;28;20035;-47
2022/05/15 00:08:19;;;;;;;4.97;1.30;;;;;;;13.08;53.44;101850.72;5084218;28;20174;-45
2022/05/15 00:10:45;;;;;;;7.35;2.00;;;;;;;13.05;53.63;101839.47;5085367;28;20450;-47
2022/05/15 00:13:11;;;;;;;3.38;1.60;;;;;;;13.09;53.53;101839.22;5081846;28;20051;-47
2022/05/15 00:15:38;;;;;;;6.60;1.60;;;;;;;13.00;53.74;101847.63;5092474;28;20541;-46
2022/05/15 00:18:04;;;;;;;10.13;2.08;;;;;;;12.91;54.06;101845.47;5088359;28;20043;-46
2022/05/15 00:20:29;;;;;;;7.30;1.63;;;;;;;12.78;54.34;101847.84;5089261;28;20020;-44
2022/05/15 00:22:55;;;;;;;9.15;2.20;;;;;;;12.66;54.62;101838.72;5090000;28;20486;-46
2022/05/15 00:25:20;;;;;;;7.05;1.67;;;;;;;12.56;55.05;101840.13;5085690;28;20054;-44
2022/05/15 00:27:47;;;;;;;7.53;1.88;;;;;;;12.47;55.23;101836.13;5083387;28;20035;-48
2022/05/15 00:30:14;;;;;;;7.13;1.90;;;;;;;12.42;55.49;101835.50;5088504;28;20032;-49
2022/05/15 00:32:39;;;;;;;4.32;1.70;;;;;;;12.37;55.54;101838.38;5080000;28;20488;-48
2022/05/15 00:35:06;;;;;;;4.82;1.60;;;;;;;12.38;55.53;101832.16;5089335;28;20032;-49
2022/05/15 00:37:31;;;;;;;6.05;1.55;;;;;;;12.37;55.68;101832.25;5091674;28;20035;-47
2022/05/15 00:39:57;;;;;;;8.65;1.67;;;;;;;12.38;55.55;101831.31;5083053;28;20043;-50
2022/05/15 00:42:23;;;;;;;4.43;1.20;;;;;;;12.32;55.83;101840.38;5084928;28;20051;-49
2022/05/15 00:44:49;;;;;;;6.80;1.80;;;;;;;12.26;55.89;101843.31;5086819;28;20372;-47
2022/05/15 00:47:14;;;;;;;5.15;1.75;;;;;;;12.23;56.09;101836.41;5080119;28;20031;-49
2022/05/15 00:49:40;;;;;;;5.70;1.67;;;;;;;12.23;56.20;101830.25;5087102;28;20031;-49
2022/05/15 00:52:11;;;;;;;4.78;1.48;;;;;;;12.19;56.38;101829.53;5088618;28;20024;-48
2022/05/15 00:54:46;;;;;;;9.20;1.70;;;;;;;12.19;56.23;101838.31;5088511;28;20027;-52
2022/05/15 00:57:49;;;;;;;5.00;1.80;;;;;;;12.23;56.34;101841.66;5079694;28;20047;-52
2022/05/15 01:00:19;;;;;;;6.80;1.70;;;;;;;12.22;56.37;101841.72;5034824;28;20044;-52
2022/05/15 01:03:13;;;;;;;5.60;1.88;;;;;;;12.19;56.76;101851.50;5086022;28;20493;-48
2022/05/15 01:05:45;;;;;;;8.07;1.70;;;;;;;12.20;56.51;101842.66;5077963;28;20107;-46
2022/05/15 01:08:11;;;;;;;6.57;1.75;;;;;;;12.23;56.41;101841.66;5085465;28;20489;-47
2022/05/15 01:10:40;;;;;;;5.63;1.38;;;;;;;12.30;56.22;101842.25;5090846;28;20032;-48
2022/05/15 01:13:06;;;;;;;6.72;1.58;;;;;;;12.45;55.93;101838.88;5086362;28;20070;-48
2022/05/15 01:15:33;;;;;;;12.05;1.88;;;;;;;12.60;55.62;101849.59;5086234;28;20048;-49
2022/05/15 01:17:58;;;;;;;5.35;1.38;;;;;;;12.63;55.23;101852.06;5085282;28;20055;-48
2022/05/15 01:20:27;;;;;;;4.63;1.58;;;;;;;12.75;55.25;101861.19;5093278;28;20066;-49
2022/05/15 01:22:52;;;;;;;5.85;1.60;;;;;;;12.88;54.97;101861.44;5085506;28;20051;-50
2022/05/15 01:25:28;;;;;;;6.85;2.05;;;;;;;12.99;54.58;101861.75;5090613;28;21132;-48
2022/05/15 01:28:02;;;;;;;5.18;1.58;;;;;;;13.10;54.32;101859.44;5086523;28;20556;-49
2022/05/15 01:30:28;;;;;;;9.00;1.83;;;;;;;13.20;54.01;101858.97;5084645;28;20030;-48
2022/05/15 01:32:54;;;;;;;5.63;1.40;;;;;;;13.25;53.93;101856.94;5086043;28;20032;-47
2022/05/15 01:35:20;;;;;;;6.18;1.55;;;;;;;13.28;53.71;101864.72;5086309;28;20028;-49
2022/05/15 01:37:45;;;;;;;6.50;1.70;;;;;;;13.32;53.53;101863.63;5088255;28;20040;-49
2022/05/15 01:40:12;;;;;;;4.82;1.35;;;;;;;13.36;53.55;101870.47;5094754;28;20080;-48
2022/05/15 01:42:38;;;;;;;8.02;1.58;;;;;;;13.37;53.49;101866.91;5091836;28;20032;-49
2022/05/15 01:45:05;;;;;;;5.45;1.30;;;;;;;13.36;53.29;101870.47;5090629;28;20035;-49
2022/05/15 01:47:30;;;;;;;4.18;1.40;;;;;;;13.35;53.56;101871.41;5088456;28;20058;-49
2022/05/15 01:49:56;;;;;;;7.20;2.33;;;;;;;13.35;53.39;101868.78;5091288;28;20024;-51
2022/05/15 01:52:21;;;;;;;7.25;1.90;;;;;;;13.32;53.48;101865.41;5089125;28;20101;-46
2022/05/15 01:54:47;;;;;;;8.23;1.85;;;;;;;13.32;53.32;101873.34;5091635;28;20028;-49
2022/05/15 01:57:12;;;;;;;6.32;1.70;;;;;;;13.30;53.08;101870.78;5093006;28;20107;-47
2022/05/15 01:59:38;;;;;;;5.95;1.60;;;;;;;13.28;53.52;101875.28;5093507;28;20595;-50
2022/05/15 02:02:05;;;;;;;6.15;1.70;;;;;;;13.26;53.46;101874.50;5093515;28;20060;-51
2022/05/15 02:04:31;;;;;;;4.88;1.63;;;;;;;13.26;53.60;101869.22;5088813;28;20077;-49
2022/05/15 02:06:56;;;;;;;5.90;2.00;;;;;;;13.26;53.54;101877.16;5089676;28;20031;-48
2022/05/15 02:09:21;;;;;;;8.70;2.10;;;;;;;13.27;53.48;101870.94;5092037;28;20040;-49
2022/05/15 02:11:47;;;;;;;6.00;1.63;;;;;;;13.29;53.52;101874.34;5090918;28;20107;-47
2022/05/15 02:14:12;;;;;;;6.38;1.67;;;;;;;13.30;53.43;101873.44;5094314;28;20054;-49
2022/05/15 02:16:38;;;;;;;8.40;1.77;;;;;;;13.30;53.36;101873.44;5098532;28;20077;-48
2022/05/15 02:19:04;;;;;;;4.88;1.48;;;;;;;13.32;53.30;101878.63;5092830;28;20040;-49
2022/05/15 02:21:30;;;;;;;6.47;1.70;;;;;;;13.33;53.15;101883.84;5087058;28;20031;-49
2022/05/15 02:23:57;;;;;;;7.13;1.80;;;;;;;13.32;53.16;101889.19;5088483;28;20029;-47
2022/05/15 02:26:23;;;;;;;6.35;1.92;;;;;;;13.29;53.26;101887.56;5090931;28;20463;-48
2022/05/15 02:28:49;;;;;;;6.00;2.13;;;;;;;13.27;53.57;101887.66;5086268;28;20032;-49
2022/05/15 02:31:16;;;;;;;5.93;2.30;;;;;;;13.27;53.26;101878.88;5090976;28;20099;-47
2022/05/15 02:33:42;;;;;;;5.35;1.48;;;;;;;13.26;53.33;101879.78;5093346;28;20024;-46
2022/05/15 02:36:08;;;;;;;8.25;1.80;;;;;;;13.23;53.42;101879.97;5093227;28;20039;-45
2022/05/15 02:38:33;;;;;;;7.18;1.98;;;;;;;13.21;53.24;101887.97;5090968;28;20055;-49
2022/05/15 02:40:59;;;;;;;4.88;1.90;;;;;;;13.21;53.51;101887.13;5087219;28;20063;-46
2022/05/15 02:43:24;;;;;;;6.32;1.77;;;;;;;13.20;53.53;101893.34;5089651;28;20088;-49
2022/05/15 02:45:50;;;;;;;6.82;1.70;;;;;;;13.19;53.46;101892.47;5085606;28;20471;-46
2022/05/15 02:51:05;;;;;;;8.32;2.92;;;;;;;13.20;53.46;101895.97;5084594;28;20047;-48
2022/05/15 02:53:40;;;;;;;5.15;1.58;;;;;;;13.16;53.28;101894.41;5090976;28;20494;-46
2022/05/15 02:56:11;;;;;;;6.30;2.03;;;;;;;13.12;53.68;101891.09;5084726;28;20032;-45
2022/05/15 02:58:37;;;;;;;5.22;1.90;;;;;;;13.10;53.59;101893.78;5089690;28;20601;-45
2022/05/15 03:01:03;;;;;;;4.90;1.90;;;;;;;13.08;53.84;101893.00;5088658;28;20048;-45
2022/05/15 03:03:28;;;;;;;4.93;1.85;;;;;;;13.10;53.75;101900.88;5086656;28;20027;-46
2022/05/15 03:05:54;;;;;;;5.20;1.80;;;;;;;13.11;53.75;101899.94;5091641;28;20373;-47
2022/05/15 03:08:20;;;;;;;8.40;2.03;;;;;;;13.09;53.75;101905.28;5090108;28;20391;-46
2022/05/15 03:10:45;;;;;;;6.97;1.90;;;;;;;13.07;53.63;101906.31;5091141;28;20024;-48
2022/05/15 03:13:11;;;;;;;3.95;1.65;;;;;;;13.05;53.57;101898.47;5093361;28;20067;-48
2022/05/15 03:15:37;;;;;;;10.98;4.40;;;;;;;13.05;53.72;101902.88;5089835;28;20032;-46
2022/05/15 03:18:03;;;;;;;4.80;1.63;;;;;;;13.03;53.71;101905.59;5089362;28;20059;-48
2022/05/15 03:20:29;;;;;;;7.13;1.88;;;;;;;13.03;53.71;101910.88;5087562;28;20543;-48
2022/05/15 03:22:55;;;;;;;6.40;1.80;;;;;;;13.02;53.87;101908.31;5090352;28;20085;-47
2022/05/15 03:25:21;;;;;;;5.88;1.45;;;;;;;13.01;53.82;101906.63;5088562;28;20032;-45
2022/05/15 03:27:46;;;;;;;5.82;1.80;;;;;;;13.00;54.03;101904.91;5090872;28;20023;-45
2022/05/15 03:30:13;;;;;;;6.57;1.73;;;;;;;12.99;53.80;101906.69;5090196;28;20032;-49
2022/05/15 03:32:38;;;;;;;8.82;1.80;;;;;;;12.98;54.02;101907.59;5090706;28;20051;-48
2022/05/15 03:35:05;;;;;;;4.78;2.15;;;;;;;12.97;53.68;101908.53;5092488;28;20059;-46
2022/05/15 03:37:31;;;;;;;5.72;2.08;;;;;;;12.96;53.69;101906.81;5088522;28;20043;-46
2022/05/15 03:39:57;;;;;;;7.40;1.85;;;;;;;12.96;53.70;101909.47;5090925;28;20442;-46
2022/05/15 03:42:24;;;;;;;5.05;1.83;;;;;;;12.96;53.74;101904.19;5089819;28;20383;-45
2022/05/15 03:44:50;;;;;;;9.00;2.20;;;;;;;12.94;53.71;101906.03;5088799;28;20078;-47
2022/05/15 03:47:16;;;;;;;4.40;1.80;;;;;;;12.93;53.91;101912.28;5088996;28;20724;-46
2022/05/15 03:49:42;;;;;;;9.18;1.95;;;;;;;12.92;53.88;101913.22;5089588;28;20162;-45
2022/05/15 03:52:07;;;;;;;5.88;1.88;;;;;;;12.90;54.01;101917.72;5090098;28;20035;-45
2022/05/15 03:54:33;;;;;;;5.88;2.00;;;;;;;12.88;53.83;101916.94;5090250;28;20028;-48
2022/05/15 03:56:59;;;;;;;7.00;2.22;;;;;;;12.88;53.94;101916.94;5092067;28;20093;-45
2022/05/15 03:59:31;;;;;;;7.25;2.35;;;;;;;12.88;53.97;101916.94;5089850;28;20031;-48
2022/05/15 04:01:57;;;;;;;5.57;2.08;;;;;;;12.89;53.84;101916.84;5091189;28;20024;-46
2022/05/15 04:04:23;;;;;;;6.03;2.45;;;;;;;12.90;53.84;101915.91;5092710;28;20502;-47
2022/05/15 04:06:49;;;;;;;7.35;1.77;;;;;;;12.89;53.95;101924.75;5084445;28;20036;-47
2022/05/15 04:09:15;;;;;;;6.50;1.85;;;;;;;12.88;54.05;101927.50;5091326;28;20032;-48
2022/05/15 04:11:41;;;;;;;5.07;1.70;;;;;;;12.88;54.01;101928.34;5080336;28;20135;-48
2022/05/15 04:14:06;;;;;;;8.90;2.13;;;;;;;12.88;54.17;101917.75;5087351;28;20364;-47
2022/05/15 04:16:32;;;;;;;27.83;15.73;;;;;;;12.86;54.27;101924.91;5090887;28;20437;-49
2022/05/15 04:18:58;;;;;;;4.72;1.67;;;;;;;12.81;54.55;101927.78;5086424;28;20028;-45
2022/05/15 04:21:25;;;;;;;6.80;1.88;;;;;;;12.79;54.67;101929.63;5089605;28;20028;-49
2022/05/15 04:23:50;;;;;;;6.40;1.58;;;;;;;12.77;54.79;101934.16;5092430;28;20031;-45
2022/05/15 04:26:16;;;;;;;5.78;1.60;;;;;;;12.73;54.89;101929.94;5088298;28;20025;-45
2022/05/15 04:28:41;;;;;;;4.05;1.30;;;;;;;12.64;55.21;101930.38;5085040;28;20059;-46
2022/05/15 04:31:07;;;;;;;4.38;1.42;;;;;;;12.62;55.44;101934.88;5084818;28;20371;-47
2022/05/15 04:33:34;;;;;;;5.30;1.73;;;;;;;12.47;55.94;101921.50;5087436;28;20024;-48
2022/05/15 04:35:59;;;;;;;10.90;3.22;;;;;;;12.25;56.77;101934.78;5086334;28;20391;-48
2022/05/15 04:38:25;;;;;;;7.13;1.70;;;;;;;12.14;57.01;101932.66;5084697;28;20535;-50
2022/05/15 04:40:52;;;;;;;5.82;1.70;;;;;;;12.06;57.39;101940.06;5081730;28;20126;-48
2022/05/15 04:43:18;;;;;;;5.90;1.90;;;;;;;11.99;57.63;101938.63;5087479;28;20031;-48
2022/05/15 04:45:43;;;;;;;7.22;1.88;;;;;;;11.95;57.79;101945.78;5085952;28;20028;-49
2022/05/15 04:48:10;;;;;;;5.47;2.28;;;;;;;11.99;57.93;101943.91;5079675;28;20036;-47
2022/05/15 04:50:37;;;;;;;6.57;2.03;;;;;;;11.99;58.06;101941.28;5086071;28;20097;-48
2022/05/15 04:53:04;;;;;;;8.65;2.08;;;;;;;11.96;58.34;101944.00;5091232;28;20032;-45
2022/05/15 04:55:29;;;;;;;3.72;1.45;;;;;;;12.01;58.36;101956.09;5088939;28;20020;-46
2022/05/15 04:57:55;;;;;;;5.72;1.80;;;;;;;12.09;58.09;101945.19;5091133;28;20093;-48
2022/05/15 05:00:20;;;;;;;10.32;1.77;;;;;;;12.17;58.04;101958.91;5080974;28;20105;-46
2022/05/15 05:02:46;;;;;;;6.72;1.70;;;;;;;12.16;58.24;101962.47;5095543;27;20064;-45
2022/05/15 05:05:13;;;;;;;6.38;1.58;;;;;;;12.12;58.56;101966.19;5089476;28;20035;-49
2022/05/15 05:07:39;;;;;;;17.50;9.38;;;;;;;12.11;58.72;101967.09;5089331;28;20024;-48
2022/05/15 05:10:06;;;;;;;19.00;7.88;;;;;;;12.06;59.24;101977.00;5090972;28;20035;-47
2022/05/15 05:12:32;;;;;;;6.57;2.00;;;;;;;12.12;58.94;101973.22;5088662;28;20078;-45
2022/05/15 05:14:58;;;;;;;4.80;2.00;;;;;;;12.18;59.13;101976.44;5093292;28;20040;-48
2022/05/15 05:17:24;;;;;;;6.70;2.00;;;;;;;12.17;59.42;101980.03;5089370;28;20440;-45
2022/05/15 05:19:50;;;;;;;6.07;1.80;;;;;;;12.19;59.21;101980.78;5092653;28;20038;-46
2022/05/15 05:22:16;;;;;;;11.48;2.10;;;;;;;12.19;59.36;101983.44;5089983;28;20027;-45
2022/05/15 05:24:41;;;;;;;5.70;1.85;;;;;;;12.24;59.39;101990.28;5088018;28;20036;-45
2022/05/15 05:27:07;;;;;;;8.80;2.00;;;;;;;12.26;59.47;101988.44;5099801;28;20029;-48
2022/05/15 05:29:33;;;;;;;6.38;1.95;;;;;;;12.31;59.36;101994.38;5088576;28;20605;-44
2022/05/15 05:31:58;;;;;;;11.40;2.10;;;;;;;12.36;59.53;101995.00;5085872;28;20039;-45
2022/05/15 05:34:24;;;;;;;7.30;2.03;;;;;;;12.48;59.23;102004.16;5088148;28;20063;-47
2022/05/15 05:36:49;;;;;;;7.30;1.92;;;;;;;12.50;59.60;102002.31;5095538;28;20024;-47
2022/05/15 05:39:17;;;;;;;6.97;1.85;;;;;;;12.50;59.68;101997.03;5086671;28;20028;-47
2022/05/15 05:41:42;;;;;;;6.60;1.67;;;;;;;12.57;59.60;101997.59;5094743;28;20048;-45
2022/05/15 05:44:08;;;;;;;6.32;2.65;;;;;;;12.65;59.47;102004.25;5090705;28;20024;-47
2022/05/15 05:46:33;;;;;;;5.50;1.67;;;;;;;12.68;59.28;102016.44;5091510;28;20036;-47
2022/05/15 05:48:59;;;;;;;6.20;1.90;;;;;;;12.71;59.51;102020.72;5088201;28;20039;-49
2022/05/15 05:51:25;;;;;;;9.90;2.88;;;;;;;12.74;59.42;102025.88;5090205;28;20032;-49
2022/05/15 05:53:50;;;;;;;6.50;2.08;;;;;;;12.76;59.50;102024.88;5088403;28;20036;-46
2022/05/15 05:56:16;;;;;;;6.45;2.30;;;;;;;12.79;59.51;102031.78;5097875;28;20114;-48
2022/05/15 05:58:42;;;;;;;10.73;2.65;;;;;;;12.86;59.58;102032.38;5086120;28;20059;-49
2022/05/15 06:01:08;;;;;;;7.53;2.25;;;;;;;12.94;59.37;102039.00;5085102;28;20379;-47
2022/05/15 06:06:18;;;;;;;8.77;2.20;;;;;;;13.04;59.39;102028.00;5088591;28;20078;-46
2022/05/15 06:08:44;;;;;;;8.10;1.77;;;;;;;13.14;59.18;102031.06;5082140;28;20055;-46
2022/05/15 06:11:10;;;;;;;7.60;1.70;;;;;;;13.24;58.82;102038.47;5085872;28;20593;-50
2022/05/15 06:13:36;;;;;;;5.40;1.50;;;;;;;13.29;58.34;102026.81;5085867;28;20136;-48
2022/05/15 06:16:02;;;;;;;4.53;1.60;;;;;;;13.35;58.21;102029.16;5084344;28;20665;-46
2022/05/15 06:18:28;;;;;;;6.22;1.80;;;;;;;13.38;58.12;102037.81;5085833;28;20024;-48
2022/05/15 06:20:53;;;;;;;6.93;1.65;;;;;;;13.42;58.03;102033.25;5087046;28;20074;-47
2022/05/15 06:23:20;;;;;;;10.50;1.73;;;;;;;13.48;57.81;102029.44;5087507;27;20041;-45
2022/05/15 06:25:45;;;;;;;5.00;1.52;;;;;;;13.53;57.66;102025.63;5097783;28;20177;-49
2022/05/15 06:28:11;;;;;;;7.15;1.85;;;;;;;13.59;57.52;102026.28;5080258;28;20432;-49
2022/05/15 06:30:37;;;;;;;4.03;1.40;;;;;;;13.59;57.14;102035.06;5092523;28;20028;-48
2022/05/15 06:33:04;;;;;;;6.78;1.73;;;;;;;13.57;56.72;102044.84;5092866;28;20449;-48
2022/05/15 06:35:29;;;;;;;12.98;5.03;;;;;;;13.58;56.40;102033.34;5086317;28;20395;-48
2022/05/15 06:37:55;;;;;;;6.68;2.58;;;;;;;13.61;56.67;102038.47;5088464;28;20043;-49
2022/05/15 06:40:20;;;;;;;9.40;1.88;;;;;;;13.70;56.53;102031.88;5086270;28;20114;-49
2022/05/15 06:42:46;;;;;;;9.68;1.40;;;;;;;13.84;56.15;102031.19;5089052;28;20028;-48
2022/05/15 06:45:13;;;;;;;4.00;1.20;;;;;;;13.91;55.70;102040.50;5090773;28;20480;-47
2022/05/15 06:47:39;;;;;;;6.38;1.38;;;;;;;13.95;55.22;102046.50;5088930;28;20111;-49
2022/05/15 06:50:07;;;;;;;8.63;1.30;;;;;;;13.94;54.83;102037.72;5088385;28;20130;-48
2022/05/15 06:52:33;;;;;;;9.23;1.67;;;;;;;13.94;54.80;102044.78;5088179;28;20059;-48
2022/05/15 06:54:59;;;;;;;4.10;1.30;;;;;;;13.96;54.84;102048.19;5092365;28;20612;-50
2022/05/15 06:57:31;;;;;;;5.18;1.30;;;;;;;13.98;54.56;102044.56;5085950;28;20123;-48
2022/05/15 07:00:06;;;;;;;3.22;1.02;;;;;;;14.03;54.42;102044.31;5083797;28;20059;-48
2022/05/15 07:02:32;;;;;;;6.80;1.20;;;;;;;14.10;54.49;102042.22;5082580;28;20070;-47
2022/05/15 07:04:58;;;;;;;5.78;1.50;;;;;;;14.17;54.12;102038.28;5085005;28;20052;-49
2022/05/15 07:07:24;;;;;;;4.38;1.10;;;;;;;14.27;53.73;102043.97;5087049;28;20688;-48
2022/05/15 07:09:49;;;;;;;6.40;1.20;;;;;;;14.20;53.90;102046.09;5086024;28;20084;-48
2022/05/15 07:12:15;;;;;;;11.23;3.42;;;;;;;14.22;53.88;102048.66;5089772;28;20081;-51
2022/05/15 07:14:41;;;;;;;3.03;1.23;;;;;;;14.16;53.49;102049.81;5082537;28;20055;-51
2022/05/15 07:17:06;;;;;;;5.15;1.20;;;;;;;14.15;53.56;102048.97;5083667;28;20032;-49
2022/05/15 07:19:32;;;;;;;3.60;1.30;;;;;;;14.21;53.44;102053.09;5087866;28;20127;-49
2022/05/15 07:21:57;;;;;;;5.50;1.30;;;;;;;14.31;53.31;102051.66;5087640;28;20047;-52
2022/05/15 07:24:23;;;;;;;4.25;1.20;;;;;;;14.38;53.25;102040.75;5090671;28;20032;-46
2022/05/15 07:26:50;;;;;;;5.63;1.45;;;;;;;14.37;53.18;102045.19;5093644;28;20071;-49
2022/05/15 07:29:16;;;;;;;7.07;2.10;;;;;;;14.42;53.36;102043.16;5092200;28;20028;-48
2022/05/15 07:31:43;;;;;;;2.33;1.15;;;;;;;14.48;53.09;102045.47;5088893;28;20024;-50
2022/05/15 07:34:09;;;;;;;7.00;3.30;;;;;;;14.52;52.85;102048.81;5087746;28;20038;-48
2022/05/15 07:36:35;;;;;;;6.25;1.92;;;;;;;14.58;52.80;102051.16;5084336;28;20026;-49
2022/05/15 07:39:01;;;;;;;3.95;1.40;;;;;;;14.65;52.55;102051.66;5076562;28;20031;-48
2022/05/15 07:41:27;;;;;;;4.43;1.63;;;;;;;14.67;52.40;102054.22;5085531;28;20039;-48
2022/05/15 07:43:52;;;;;;;3.45;1.35;;;;;;;14.63;52.21;102054.38;5079371;28;20054;-48
2022/05/15 07:46:18;;;;;;;4.05;1.60;;;;;;;14.68;52.18;102053.31;5083038;28;20155;-48
2022/05/15 07:48:43;;;;;;;5.82;1.42;;;;;;;14.70;52.29;102048.78;5080765;28;20060;-49
2022/05/15 07:51:09;;;;;;;4.68;1.52;;;;;;;14.72;52.12;102046.91;5086116;28;20392;-49
2022/05/15 07:53:38;;;;;;;5.03;1.40;;;;;;;14.71;52.15;102048.69;5081230;28;20066;-48
2022/05/15 07:56:09;;;;;;;4.53;1.50;;;;;;;14.77;52.15;102045.72;5077452;28;20020;-46
2022/05/15 07:58:38;;;;;;;3.40;1.27;;;;;;;14.82;51.63;102053.41;5089146;28;20036;-48
2022/05/15 08:01:05;;;;;;;2.55;1.20;;;;;;;14.84;51.79;102054.19;5084512;28;20114;-46
2022/05/15 08:03:38;;;;;;;5.28;1.25;;;;;;;14.87;51.67;102047.84;5084546;28;20028;-50
2022/05/15 08:08:48;;;;;;;6.80;1.45;;;;;;;15.01;51.46;102052.41;5078328;28;20090;-47
2022/05/15 08:11:14;;;;;;;6.03;1.60;;;;;;;15.07;51.57;102047.63;5081773;28;20031;-46
2022/05/15 08:13:41;;;;;;;2.78;1.13;;;;;;;15.12;51.31;102047.34;5079113;28;20036;-49
2022/05/15 08:16:08;;;;;;;2.63;1.20;;;;;;;15.16;51.02;102048.91;5086272;28;20017;-46
2022/05/15 08:24:02;;;;;;;3.60;1.10;;;;;;;15.27;50.53;102050.06;5086246;28;20086;-46
2022/05/15 08:26:28;;;;;;;4.57;1.90;;;;;;;15.31;50.17;102044.50;5084004;28;20554;-48
2022/05/15 08:28:55;;;;;;;5.43;2.05;;;;;;;15.39;50.21;102041.41;5079075;28;20411;-45
2022/05/15 08:31:22;;;;;;;4.28;1.42;;;;;;;15.46;49.85;102058.69;5085431;28;22099;-46
2022/05/15 08:33:48;;;;;;;4.03;1.20;;;;;;;15.50;49.62;102054.91;5087156;28;20035;-46
2022/05/15 08:36:14;;;;;;;3.90;1.55;;;;;;;15.51;49.45;102055.78;5097414;28;20028;-46
2022/05/15 08:38:40;;;;;;;4.45;1.23;;;;;;;15.53;48.93;102061.84;5086153;28;20037;-46
2022/05/15 08:41:47;;;;;;;3.83;1.15;;;;;;;15.58;48.64;102054.47;5089580;28;20043;-46
2022/05/15 08:44:21;;;;;;;4.03;1.23;;;;;;;15.62;48.46;102057.81;5055985;28;20042;-49
2022/05/15 08:47:04;;;;;;;4.22;1.17;;;;;;;15.53;47.99;102057.38;5084727;28;20491;-47
2022/05/15 08:49:47;;;;;;;5.00;1.10;;;;;;;15.54;48.23;102061.75;5078231;28;20032;-47
2022/05/15 08:52:51;;;;;;;4.47;1.20;;;;;;;15.56;48.14;102053.72;5076710;28;20545;-48
2022/05/15 08:55:33;;;;;;;2.20;1.00;;;;;;;15.65;48.09;102054.97;5090909;28;20032;-46
2022/05/15 08:58:01;;;;;;;3.78;1.63;;;;;;;15.69;47.86;102044.09;5090742;28;20527;-50
2022/05/15 09:00:38;;;;;;;4.35;1.58;;;;;;;15.74;47.23;102046.47;5079746;28;20056;-50
2022/05/15 09:03:17;;;;;;;4.85;1.30;;;;;;;15.79;47.20;102051.50;5076439;28;20119;-48
2022/05/15 09:06:08;;;;;;;5.38;1.80;;;;;;;15.86;47.04;102052.91;5076276;28;20016;-51
2022/05/15 09:08:42;;;;;;;4.35;1.38;;;;;;;15.85;46.28;102041.41;5070134;28;20434;-47
2022/05/15 09:11:12;;;;;;;4.28;1.10;;;;;;;15.86;45.94;102042.28;5092363;28;20023;-47
2022/05/15 09:14:07;;;;;;;3.20;1.30;;;;;;;15.91;45.76;102055.28;5085133;28;20107;-46
2022/05/15 09:16:34;;;;;;;4.63;1.10;;;;;;;16.00;45.21;102054.72;5085144;28;20021;-49
2022/05/15 09:19:06;;;;;;;3.95;1.10;;;;;;;16.02;45.12;102044.84;5075827;28;20036;-46
2022/05/15 09:21:32;;;;;;;5.55;1.35;;;;;;;16.06;45.28;102059.66;5084386;28;20495;-46
2022/05/15 09:24:08;;;;;;;6.15;1.40;;;;;;;16.12;45.16;102051.31;5087481;28;20032;-46
2022/05/15 09:26:47;;;;;;;6.32;1.40;;;;;;;16.19;44.90;102045.63;5090224;28;20044;-46
2022/05/15 09:29:28;;;;;;;3.22;1.30;;;;;;;16.27;44.73;102051.31;5089220;28;20036;-46
2022/05/15 09:31:54;;;;;;;3.85;1.30;;;;;;;16.25;44.71;102051.44;5079622;28;20039;-46
2022/05/15 09:34:19;;;;;;;7.22;1.40;;;;;;;16.26;44.72;102052.28;5075302;28;20031;-47
2022/05/15 09:36:46;;;;;;;5.10;1.50;;;;;;;16.32;44.44;102041.28;5085175;28;20035;-49
2022/05/15 09:39:25;;;;;;;3.35;1.30;;;;;;;16.41;44.23;102050.50;5085787;28;20035;-50
2022/05/15 09:44:42;;;;;;;5.07;1.30;;;;;;;16.54;43.69;102037.31;5080174;28;20285;-47
2022/05/15 09:47:11;;;;;;;4.30;1.30;;;;;;;16.58;43.64;102057.41;5087372;28;20035;-49
2022/05/15 09:49:37;;;;;;;7.00;1.30;;;;;;;16.63;43.66;102044.69;5084872;28;20032;-46
2022/05/15 09:52:18;;;;;;;4.13;1.45;;;;;;;16.64;43.37;102048.22;5086041;28;20081;-46
2022/05/15 09:54:46;;;;;;;6.15;1.63;;;;;;;16.67;43.42;102058.63;5083581;28;20111;-48
2022/05/15 09:57:29;;;;;;;4.75;1.42;;;;;;;16.63;43.66;102070.41;5087758;28;20103;-50
2022/05/15 10:00:03;;;;;;;3.10;1.17;;;;;;;16.62;43.45;102061.56;5087162;28;20500;-45
2022/05/15 10:02:42;;;;;;;4.38;1.33;;;;;;;16.61;43.35;102051.91;5089309;28;20034;-47
2022/05/15 10:05:19;;;;;;;5.20;1.48;;;;;;;16.65;43.35;102048.09;5086632;28;20043;-49
2022/05/15 10:08:00;;;;;;;3.97;1.38;;;;;;;16.71;43.17;102050.34;5087909;28;20039;-46
2022/05/15 10:10:25;;;;;;;5.53;1.60;;;;;;;16.79;43.43;102041.06;5086227;28;20040;-47
2022/05/15 10:13:09;;;;;;;4.53;1.23;;;;;;;16.88;43.11;102044.00;5092959;28;20028;-47
2022/05/15 10:16:07;;;;;;;3.33;1.40;;;;;;;16.95;43.18;102038.28;5081216;28;20020;-46
2022/05/15 10:18:44;;;;;;;5.25;1.50;;;;;;;17.02;43.32;102034.31;5082198;28;20559;-50
2022/05/15 10:21:10;;;;;;;4.60;1.65;;;;;;;17.08;43.46;102033.91;5077079;28;20112;-49
2022/05/15 10:23:48;;;;;;;7.88;2.55;;;;;;;17.14;42.99;102027.34;5087206;28;20395;-49
2022/05/15 10:26:26;;;;;;;4.60;1.52;;;;;;;17.10;41.68;102053.25;5080479;28;20443;-50
2022/05/15 10:29:04;;;;;;;3.67;1.10;;;;;;;17.11;41.88;102030.19;5081403;28;20028;-49
2022/05/15 10:31:38;;;;;;;6.10;1.80;;;;;;;17.07;41.88;102037.53;5082191;28;20027;-49
2022/05/15 10:34:11;;;;;;;3.60;1.40;;;;;;;17.09;41.99;102026.78;5091432;28;20028;-49
2022/05/15 10:37:12;;;;;;;6.53;1.60;;;;;;;17.13;42.30;102017.66;5084796;28;20155;-49
2022/05/15 10:40:23;;;;;;;6.57;1.63;;;;;;;17.24;41.89;102023.13;5081197;28;20032;-49
2022/05/15 10:43:08;;;;;;;4.20;1.10;;;;;;;17.29;41.65;102021.00;5076025;28;20044;-49
2022/05/15 10:45:50;;;;;;;3.95;1.42;;;;;;;17.34;41.60;102023.38;5079772;28;20036;-52
2022/05/15 10:48:41;;;;;;;3.78;1.20;;;;;;;17.34;41.29;102018.88;5083933;28;20051;-48
2022/05/15 10:51:18;;;;;;;4.82;1.30;;;;;;;17.37;41.60;102009.88;5079699;28;20109;-48
2022/05/15 10:59:45;;;;;;;4.20;1.10;;;;;;;17.51;41.51;102019.56;5088609;28;20039;-48
2022/05/15 11:02:19;;;;;;;3.38;1.30;;;;;;;17.56;41.49;102011.28;5078277;28;20111;-51
2022/05/15 11:04:44;;;;;;;4.88;1.45;;;;;;;17.60;41.23;102012.78;5076605;28;20451;-50
2022/05/15 11:07:16;;;;;;;5.32;1.50;;;;;;;17.62;40.94;102011.72;5080555;28;20051;-53
2022/05/15 11:10:29;;;;;;;4.07;1.17;;;;;;;17.67;41.09;102008.75;5082236;28;20028;-51
2022/05/15 11:13:00;;;;;;;5.88;1.50;;;;;;;17.70;41.08;102007.69;5054772;28;20039;-49
2022/05/15 11:15:59;;;;;;;4.88;1.48;;;;;;;17.71;41.02;102004.06;5082803;28;20031;-54
2022/05/15 11:18:45;;;;;;;3.75;1.20;;;;;;;17.74;40.51;102014.53;5080429;28;20031;-51
2022/05/15 11:21:17;;;;;;;3.60;1.25;;;;;;;17.75;40.63;101994.94;5066427;28;20147;-50
2022/05/15 11:24:11;;;;;;;4.82;1.52;;;;;;;17.76;40.50;102001.97;5071782;28;20020;-52
2022/05/15 11:26:45;;;;;;;4.47;1.23;;;;;;;17.81;40.58;101989.16;5042769;28;20123;-49
2022/05/15 11:29:14;;;;;;;3.78;1.38;;;;;;;17.84;40.79;101988.97;5076183;28;20024;-51
2022/05/15 11:32:25;;;;;;;3.33;1.30;;;;;;;17.92;40.59;101983.09;5081752;28;20035;-50
2022/05/15 11:35:22;;;;;;;6.32;1.45;;;;;;;18.00;40.70;101995.91;5074048;28;20060;-49
2022/05/15 11:37:56;;;;;;;3.38;1.20;;;;;;;18.02;40.56;101986.00;5080610;28;20046;-50
2022/05/15 11:40:31;;;;;;;3.97;1.38;;;;;;;18.05;39.95;101993.81;5077667;28;20038;-50
2022/05/15 11:42:57;;;;;;;5.80;2.05;;;;;;;18.05;39.95;101978.66;5083924;28;20119;-51
2022/05/15 11:45:32;;;;;;;5.78;1.30;;;;;;;18.12;39.82;101989.72;5071730;28;20034;-49
2022/05/15 11:48:17;;;;;;;7.35;1.67;;;;;;;18.17;40.05;101978.75;5086195;28;20035;-49
2022/05/15 11:50:55;;;;;;;4.68;1.60;;;;;;;18.23;40.05;101973.84;5075142;28;20028;-48
2022/05/15 11:53:31;;;;;;;4.57;1.35;;;;;;;18.28;40.12;101968.19;5077322;28;20495;-50
2022/05/15 11:55:59;;;;;;;8.38;1.67;;;;;;;18.34;39.81;101964.25;5072989;28;20035;-52
2022/05/15 11:58:36;;;;;;;2.97;1.50;;;;;;;18.41;39.80;101960.16;5082078;28;20067;-48